createdAt,value
2023-04-06T00:00:05.812Z,56.20
2023-04-06T00:02:32.991Z,55.97
2023-04-06T00:05:06.146Z,55.94
2023-04-06T00:07:35.067Z,55.95
2023-04-06T00:10:04.854Z,56.27
2023-04-06T00:12:33.443Z,56.44
2023-04-06T00:15:02.584Z,56.51
2023-04-06T00:17:29.657Z,56.25
2023-04-06T00:19:57.989Z,56.03
2023-04-06T00:22:25.701Z,56.37
2023-04-06T00:24:54.200Z,56.01
2023-04-06T00:27:31.322Z,56.33
2023-04-06T00:29:58.775Z,56.72
2023-04-06T00:32:26.176Z,56.46
2023-04-06T00:34:53.674Z,56.32
2023-04-06T00:37:21.835Z,56.10
2023-04-06T00:39:50.651Z,56.06
2023-04-06T00:42:18.659Z,55.92
2023-04-06T00:44:47.002Z,56.26
2023-04-06T00:47:14.282Z,56.87
2023-04-06T00:49:42.270Z,56.38
2023-04-06T00:52:11.170Z,57.73
2023-04-06T00:54:39.028Z,57.84
2023-04-06T00:57:07.546Z,57.94
2023-04-06T00:59:42.218Z,60.55
2023-04-06T01:02:11.494Z,65.07
2023-04-06T01:04:38.790Z,65.27
2023-04-06T01:07:07.733Z,63.00
2023-04-06T01:09:36.200Z,61.51
2023-04-06T01:12:04.666Z,60.05
2023-04-06T01:14:32.588Z,59.39
2023-04-06T01:17:01.657Z,58.80
2023-04-06T01:19:30.329Z,58.28
2023-04-06T01:21:59.952Z,57.74
2023-04-06T01:24:29.720Z,57.48
2023-04-06T01:26:57.634Z,56.97
2023-04-06T01:29:25.225Z,57.56
2023-04-06T01:31:55.031Z,59.00
2023-04-06T01:34:21.658Z,60.37
2023-04-06T01:36:49.609Z,60.91
2023-04-06T01:39:16.296Z,60.00
2023-04-06T01:41:45.343Z,59.28
2023-04-06T01:44:13.009Z,59.35
2023-04-06T01:46:39.690Z,58.61
2023-04-06T01:49:08.088Z,58.74
2023-04-06T01:51:44.934Z,59.12
2023-04-06T01:54:13.526Z,59.21
2023-04-06T01:56:41.336Z,59.43
2023-04-06T01:59:08.778Z,60.36
2023-04-06T02:01:37.461Z,59.75
2023-04-06T02:04:05.071Z,60.71
2023-04-06T02:06:32.289Z,61.16
2023-04-06T02:09:03.933Z,60.46
2023-04-06T02:11:31.593Z,60.57
2023-04-06T02:14:03.563Z,60.97
2023-04-06T02:16:31.802Z,61.29
2023-04-06T02:18:59.766Z,61.01
2023-04-06T02:21:28.256Z,60.75
2023-04-06T02:23:59.019Z,61.62
2023-04-06T02:26:26.095Z,62.70
2023-04-06T02:28:54.673Z,62.36
2023-04-06T02:31:24.288Z,62.18
2023-04-06T02:33:56.599Z,62.43
2023-04-06T02:36:27.248Z,62.04
2023-04-06T02:39:02.034Z,61.08
2023-04-06T02:41:29.355Z,60.80
2023-04-06T02:43:59.977Z,60.81
2023-04-06T02:46:26.944Z,61.08
2023-04-06T02:48:56.446Z,60.87
2023-04-06T02:51:27.054Z,60.65
2023-04-06T02:53:55.761Z,60.47
2023-04-06T02:56:24.040Z,60.31
2023-04-06T02:58:51.114Z,60.42
2023-04-06T03:01:19.710Z,60.29
2023-04-06T03:03:49.404Z,60.06
2023-04-06T03:06:18.047Z,60.79
2023-04-06T03:08:47.661Z,61.42
2023-04-06T03:11:14.212Z,61.02
2023-04-06T03:13:42.220Z,61.65
2023-04-06T03:16:10.522Z,62.11
2023-04-06T03:18:37.781Z,61.36
2023-04-06T03:21:06.263Z,61.18
2023-04-06T03:23:35.374Z,61.16
2023-04-06T03:26:04.365Z,61.62
2023-04-06T03:28:31.818Z,61.17
2023-04-06T03:30:59.265Z,60.50
2023-04-06T03:33:33.405Z,60.81
2023-04-06T03:36:04.304Z,61.79
2023-04-06T03:38:36.408Z,61.82
2023-04-06T03:41:15.013Z,63.51
2023-04-06T03:43:41.826Z,63.47
2023-04-06T03:46:09.087Z,62.96
2023-04-06T03:48:36.372Z,63.33
2023-04-06T03:51:06.173Z,62.41
2023-04-06T03:53:34.678Z,62.37
2023-04-06T03:56:03.389Z,61.61
2023-04-06T03:58:33.293Z,61.71
2023-04-06T04:01:00.472Z,61.29
2023-04-06T04:03:28.968Z,61.57
2023-04-06T04:05:58.726Z,61.96
2023-04-06T04:08:26.221Z,62.96
2023-04-06T04:10:53.623Z,63.02
2023-04-06T04:13:22.107Z,62.97
2023-04-06T04:15:50.163Z,62.21
2023-04-06T04:18:17.076Z,61.51
2023-04-06T04:20:43.522Z,60.89
2023-04-06T04:23:10.164Z,60.99
2023-04-06T04:25:36.662Z,60.74
2023-04-06T04:28:06.669Z,61.15
2023-04-06T04:30:34.622Z,61.62
2023-04-06T04:33:01.439Z,61.34
2023-04-06T04:35:29.368Z,61.07
2023-04-06T04:37:59.913Z,60.91
2023-04-06T04:40:26.439Z,60.98
2023-04-06T04:42:54.695Z,61.26
2023-04-06T04:45:21.042Z,61.03
2023-04-06T04:47:48.111Z,60.96
2023-04-06T04:50:14.791Z,60.95
2023-04-06T04:52:41.757Z,61.29
2023-04-06T04:55:08.845Z,61.03
2023-04-06T04:57:35.853Z,60.69
2023-04-06T05:00:03.201Z,60.50
2023-04-06T05:02:29.741Z,60.44
2023-04-06T05:04:56.859Z,60.88
2023-04-06T05:07:23.783Z,60.65
2023-04-06T05:09:50.582Z,60.51
2023-04-06T05:12:19.337Z,60.16
2023-04-06T05:14:46.232Z,60.25
2023-04-06T05:17:12.810Z,60.23
2023-04-06T05:19:39.354Z,60.13
2023-04-06T05:22:06.055Z,60.60
2023-04-06T05:24:34.143Z,60.64
2023-04-06T05:27:01.556Z,60.85
2023-04-06T05:29:29.786Z,61.64
2023-04-06T05:31:56.798Z,61.69
2023-04-06T05:34:23.673Z,61.80
2023-04-06T05:36:50.573Z,61.05
2023-04-06T05:39:18.251Z,60.76
2023-04-06T05:41:44.773Z,60.69
2023-04-06T05:44:11.368Z,61.24
2023-04-06T05:46:38.247Z,61.23
2023-04-06T05:49:07.502Z,60.94
2023-04-06T05:51:35.429Z,60.94
2023-04-06T05:54:03.344Z,60.66
2023-04-06T05:56:31.946Z,60.71
2023-04-06T05:58:59.262Z,60.46
2023-04-06T06:01:25.808Z,61.00
2023-04-06T06:03:52.343Z,61.59
2023-04-06T06:06:19.614Z,62.33
2023-04-06T06:08:46.771Z,62.33
2023-04-06T06:11:14.350Z,61.14
2023-04-06T06:13:41.123Z,61.15
2023-04-06T06:16:07.931Z,60.92
2023-04-06T06:18:35.036Z,60.95
2023-04-06T06:21:01.929Z,61.15
2023-04-06T06:23:29.895Z,60.75
2023-04-06T06:25:59.105Z,59.88
2023-04-06T06:28:26.427Z,59.57
2023-04-06T06:30:55.685Z,59.54
2023-04-06T06:33:23.889Z,58.60
2023-04-06T06:35:52.251Z,58.20
2023-04-06T06:38:20.907Z,57.79
2023-04-06T06:40:49.251Z,56.88
2023-04-06T06:43:16.175Z,56.51
2023-04-06T06:45:43.286Z,55.84
2023-04-06T06:48:09.933Z,55.39
2023-04-06T06:50:37.708Z,54.13
2023-04-06T06:53:05.006Z,53.93
2023-04-06T06:55:31.901Z,52.56
2023-04-06T06:57:58.700Z,52.05
2023-04-06T07:00:25.840Z,51.09
2023-04-06T07:02:52.762Z,50.96
2023-04-06T07:05:28.025Z,50.00
2023-04-06T07:07:56.155Z,49.95
2023-04-06T07:10:23.395Z,49.12
2023-04-06T07:12:50.281Z,48.97
2023-04-06T07:15:17.774Z,48.64
2023-04-06T07:17:46.550Z,47.75
2023-04-06T07:20:13.641Z,47.15
2023-04-06T07:22:41.757Z,46.79
2023-04-06T07:25:08.873Z,46.50
2023-04-06T07:27:35.530Z,45.50
2023-04-06T07:30:02.231Z,44.90
2023-04-06T07:32:29.010Z,44.76
2023-04-06T07:34:55.520Z,44.85
2023-04-06T07:37:22.853Z,44.08
2023-04-06T07:39:50.238Z,43.54
2023-04-06T07:42:16.772Z,43.07
2023-04-06T07:44:43.537Z,42.20
2023-04-06T07:47:11.110Z,41.77
2023-04-06T07:49:37.842Z,41.34
2023-04-06T07:52:04.871Z,40.91
2023-04-06T07:54:31.370Z,39.96
2023-04-06T07:56:57.911Z,40.15
2023-04-06T07:59:24.464Z,40.56
2023-04-06T08:01:51.065Z,39.78
2023-04-06T08:04:17.912Z,38.97
2023-04-06T08:06:44.813Z,38.68
2023-04-06T08:09:11.829Z,39.00
2023-04-06T08:11:38.381Z,38.68
2023-04-06T08:14:05.058Z,37.83
2023-04-06T08:16:33.442Z,37.40
2023-04-06T08:19:01.686Z,36.80
2023-04-06T08:21:28.428Z,37.13
2023-04-06T08:23:55.203Z,37.53
2023-04-06T08:26:22.008Z,36.91
2023-04-06T08:28:49.156Z,36.37
2023-04-06T08:31:15.936Z,36.24
2023-04-06T08:33:42.900Z,36.24
2023-04-06T08:36:13.535Z,36.04
2023-04-06T08:38:41.538Z,35.74
2023-04-06T08:41:12.362Z,35.73
2023-04-06T08:43:45.170Z,35.30
2023-04-06T08:46:12.448Z,35.87
2023-04-06T08:48:43.723Z,34.86
2023-04-06T08:51:11.126Z,34.31
2023-04-06T08:53:40.909Z,34.53
2023-04-06T08:56:08.591Z,34.33
2023-04-06T08:58:40.198Z,34.39
2023-04-06T09:01:09.329Z,34.09
2023-04-06T09:03:40.653Z,33.78
2023-04-06T09:06:08.077Z,33.88
2023-04-06T09:08:39.202Z,34.13
2023-04-06T09:11:05.807Z,34.17
2023-04-06T09:13:32.749Z,34.09
2023-04-06T09:16:00.297Z,33.86
2023-04-06T09:18:33.959Z,34.11
2023-04-06T09:21:02.060Z,33.56
2023-04-06T09:23:29.323Z,33.76
2023-04-06T09:26:25.367Z,34.09
2023-04-06T09:28:52.946Z,33.90
2023-04-06T09:31:26.448Z,33.34
2023-04-06T09:33:53.165Z,33.40
2023-04-06T09:36:20.558Z,33.71
2023-04-06T09:38:57.585Z,33.16
2023-04-06T09:41:32.312Z,32.82
2023-04-06T09:44:06.148Z,32.90
2023-04-06T09:46:50.733Z,32.89
2023-04-06T09:49:24.416Z,31.89
2023-04-06T09:51:55.137Z,32.61
2023-04-06T09:54:28.370Z,32.76
2023-04-06T09:57:14.652Z,32.89
2023-04-06T09:59:48.042Z,32.49
2023-04-06T10:02:19.664Z,32.96
2023-04-06T10:05:00.344Z,32.95
2023-04-06T10:07:30.371Z,32.12
2023-04-06T10:09:57.377Z,31.58
2023-04-06T10:12:23.828Z,30.72
2023-04-06T10:14:51.019Z,30.80
2023-04-06T10:17:17.925Z,31.38
2023-04-06T10:19:50.865Z,30.66
2023-04-06T10:22:25.392Z,30.80
2023-04-06T10:24:53.377Z,30.71
2023-04-06T10:27:29.366Z,30.88
2023-04-06T10:30:02.763Z,30.95
2023-04-06T10:32:36.935Z,30.55
2023-04-06T10:35:07.600Z,31.33
2023-04-06T10:37:47.646Z,31.74
2023-04-06T10:40:21.576Z,31.17
2023-04-06T10:42:48.146Z,31.28
2023-04-06T10:45:22.716Z,31.39
2023-04-06T10:47:51.362Z,31.86
2023-04-06T10:50:18.510Z,31.24
2023-04-06T10:52:47.410Z,31.37
2023-04-06T10:55:15.665Z,31.43
2023-04-06T10:57:42.567Z,31.92
2023-04-06T11:00:12.588Z,32.61
2023-04-06T11:02:40.144Z,32.46
2023-04-06T11:05:10.652Z,32.08
2023-04-06T11:07:37.618Z,31.25
2023-04-06T11:10:15.545Z,31.29
2023-04-06T11:12:44.965Z,30.58
2023-04-06T11:15:11.834Z,30.40
2023-04-06T11:17:38.647Z,29.69
2023-04-06T11:20:05.834Z,29.63
2023-04-06T11:22:34.399Z,29.59
2023-04-06T11:25:07.944Z,28.21
2023-04-06T11:27:35.208Z,29.34
2023-04-06T11:30:02.227Z,29.91
2023-04-06T11:32:29.280Z,29.99
2023-04-06T11:34:55.948Z,29.22
2023-04-06T11:37:22.508Z,30.66
2023-04-06T11:39:51.366Z,31.51
2023-04-06T11:42:24.735Z,30.01
2023-04-06T11:44:55.123Z,29.70
2023-04-06T11:47:29.401Z,29.73
2023-04-06T11:49:56.301Z,30.21
2023-04-06T11:52:26.990Z,30.04
2023-04-06T11:54:54.633Z,30.38
2023-04-06T11:57:22.631Z,30.88
2023-04-06T11:59:51.595Z,30.06
2023-04-06T12:02:18.875Z,29.99
2023-04-06T12:04:46.098Z,29.23
2023-04-06T12:07:13.219Z,29.31
2023-04-06T12:09:40.011Z,31.10
2023-04-06T12:12:07.062Z,30.11
2023-04-06T12:14:34.305Z,29.65
2023-04-06T12:17:03.698Z,29.53
2023-04-06T12:19:31.265Z,29.85
2023-04-06T12:21:59.452Z,29.89
2023-04-06T12:24:26.534Z,29.66
2023-04-06T12:26:59.568Z,29.16
2023-04-06T12:29:34.545Z,28.41
2023-04-06T12:32:02.976Z,28.98
2023-04-06T12:34:31.682Z,28.72
2023-04-06T12:37:05.171Z,28.56
2023-04-06T12:39:33.136Z,28.38
2023-04-06T12:42:00.048Z,29.32
2023-04-06T12:44:27.418Z,29.27
2023-04-06T12:46:54.645Z,29.28
2023-04-06T12:49:26.195Z,29.84
2023-04-06T12:51:53.910Z,29.64
2023-04-06T12:54:21.466Z,29.44
2023-04-06T12:56:47.991Z,29.38
2023-04-06T12:59:14.491Z,29.79
2023-04-06T13:01:41.444Z,29.35
2023-04-06T13:04:08.009Z,29.26
2023-04-06T13:06:34.524Z,29.38
2023-04-06T13:09:01.135Z,29.65
2023-04-06T13:11:28.770Z,29.50
2023-04-06T13:13:56.499Z,29.42
2023-04-06T13:16:23.672Z,29.35
2023-04-06T13:18:51.283Z,29.21
2023-04-06T13:21:18.239Z,28.85
2023-04-06T13:23:45.555Z,29.63
2023-04-06T13:26:14.694Z,30.00
2023-04-06T13:28:42.560Z,29.78
2023-04-06T13:31:10.732Z,29.49
2023-04-06T13:33:38.385Z,29.18
2023-04-06T13:36:05.395Z,29.36
2023-04-06T13:38:32.328Z,29.62
2023-04-06T13:40:59.048Z,29.07
2023-04-06T13:43:28.277Z,28.51
2023-04-06T13:45:59.217Z,28.34
2023-04-06T13:48:27.099Z,29.30
2023-04-06T13:50:53.610Z,29.14
2023-04-06T13:53:20.556Z,29.86
2023-04-06T13:55:53.490Z,29.68
2023-04-06T13:58:21.357Z,29.72
2023-04-06T14:00:48.479Z,29.04
2023-04-06T14:03:15.463Z,29.65
2023-04-06T14:05:44.582Z,30.36
2023-04-06T14:08:11.545Z,29.39
2023-04-06T14:10:43.705Z,29.59
2023-04-06T14:13:10.624Z,29.00
2023-04-06T14:15:40.097Z,29.24
2023-04-06T14:18:07.502Z,29.75
2023-04-06T14:20:34.199Z,29.97
2023-04-06T14:23:02.588Z,30.59
2023-04-06T14:25:33.189Z,30.96
2023-04-06T14:27:59.793Z,30.79
2023-04-06T14:30:26.744Z,30.21
2023-04-06T14:32:53.689Z,30.49
2023-04-06T14:35:21.698Z,30.95
2023-04-06T14:37:48.282Z,30.65
2023-04-06T14:40:15.752Z,29.70
2023-04-06T14:42:42.494Z,29.69
2023-04-06T14:45:09.555Z,30.23
2023-04-06T14:47:36.059Z,30.24
2023-04-06T14:50:05.838Z,29.55
2023-04-06T14:52:33.061Z,29.59
2023-04-06T14:54:59.562Z,30.76
2023-04-06T14:57:26.456Z,31.29
2023-04-06T14:59:54.438Z,30.95
2023-04-06T15:02:24.504Z,30.74
2023-04-06T15:04:52.087Z,30.45
2023-04-06T15:07:20.978Z,30.01
2023-04-06T15:09:47.389Z,29.55
2023-04-06T15:12:14.688Z,30.38
2023-04-06T15:14:41.521Z,30.25
2023-04-06T15:17:08.166Z,30.21
2023-04-06T15:19:36.096Z,30.14
2023-04-06T15:22:02.590Z,30.24
2023-04-06T15:24:29.127Z,30.34
2023-04-06T15:26:56.083Z,29.91
2023-04-06T15:29:22.886Z,29.95
2023-04-06T15:31:50.024Z,30.69
2023-04-06T15:34:16.761Z,30.93
2023-04-06T15:36:44.505Z,30.30
2023-04-06T15:39:11.116Z,30.63
2023-04-06T15:41:37.557Z,30.69
2023-04-06T15:44:04.654Z,30.52
2023-04-06T15:46:31.475Z,30.73
2023-04-06T15:48:58.075Z,31.32
2023-04-06T15:51:25.043Z,31.60
2023-04-06T15:53:52.072Z,30.87
2023-04-06T15:56:18.621Z,30.75
2023-04-06T15:58:45.845Z,31.35
2023-04-06T16:01:13.327Z,31.43
2023-04-06T16:03:40.824Z,31.58
2023-04-06T16:06:09.292Z,31.65
2023-04-06T16:08:36.895Z,31.05
2023-04-06T16:11:03.559Z,30.76
2023-04-06T16:13:30.216Z,31.18
2023-04-06T16:15:57.126Z,31.10
2023-04-06T16:18:23.652Z,31.34
2023-04-06T16:20:50.473Z,31.31
2023-04-06T16:23:17.282Z,31.93
2023-04-06T16:25:44.545Z,31.60
2023-04-06T16:28:11.016Z,31.59
2023-04-06T16:30:38.476Z,31.53
2023-04-06T16:33:05.139Z,32.25
2023-04-06T16:35:32.171Z,32.25
2023-04-06T16:37:58.572Z,32.19
2023-04-06T16:40:25.932Z,33.02
2023-04-06T16:42:52.544Z,32.31
2023-04-06T16:45:19.285Z,32.17
2023-04-06T16:47:45.691Z,32.21
2023-04-06T16:50:13.327Z,33.10
2023-04-06T16:52:41.204Z,32.41
2023-04-06T16:55:08.505Z,31.84
2023-04-06T16:57:35.428Z,32.05
2023-04-06T17:00:05.568Z,31.83
2023-04-06T17:02:36.281Z,32.50
2023-04-06T17:05:04.173Z,33.17
2023-04-06T17:07:32.964Z,32.97
2023-04-06T17:10:02.049Z,33.29
2023-04-06T17:12:30.132Z,33.02
2023-04-06T17:14:57.665Z,32.98
2023-04-06T17:17:24.255Z,33.14
2023-04-06T17:19:51.062Z,33.82
2023-04-06T17:22:20.935Z,33.78
2023-04-06T17:24:50.781Z,33.23
2023-04-06T17:27:17.526Z,33.92
2023-04-06T17:29:44.098Z,33.76
2023-04-06T17:32:11.648Z,34.57
2023-04-06T17:34:39.036Z,34.20
2023-04-06T17:37:05.842Z,34.74
2023-04-06T17:39:34.097Z,35.03
2023-04-06T17:42:04.337Z,35.44
2023-04-06T17:44:33.183Z,35.28
2023-04-06T17:47:01.028Z,35.34
2023-04-06T17:49:27.709Z,35.54
2023-04-06T17:51:54.140Z,35.34
2023-04-06T17:54:20.733Z,36.00
2023-04-06T17:56:54.131Z,36.77
2023-04-06T17:59:22.398Z,36.85
2023-04-06T18:01:55.479Z,36.98
2023-04-06T18:04:25.926Z,37.19
2023-04-06T18:06:58.658Z,37.94
2023-04-06T18:09:30.636Z,37.48
2023-04-06T18:11:57.715Z,37.09
2023-04-06T18:14:25.109Z,37.19
2023-04-06T18:16:55.355Z,37.64
2023-04-06T18:19:22.758Z,38.07
2023-04-06T18:21:49.590Z,37.95
2023-04-06T18:24:27.123Z,37.70
2023-04-06T18:27:00.869Z,37.88
2023-04-06T18:29:27.703Z,38.26
2023-04-06T18:31:55.454Z,37.99
2023-04-06T18:34:23.798Z,38.22
2023-04-06T18:36:51.118Z,38.55
2023-04-06T18:39:18.134Z,38.63
2023-04-06T18:41:44.733Z,38.70
2023-04-06T18:44:11.552Z,38.91
2023-04-06T18:46:39.388Z,39.25
2023-04-06T18:49:06.324Z,39.36
2023-04-06T18:51:33.559Z,39.14
2023-04-06T18:54:00.809Z,39.09
2023-04-06T18:56:27.646Z,39.14
2023-04-06T18:58:54.967Z,39.20
2023-04-06T19:01:21.828Z,39.68
2023-04-06T19:03:49.258Z,40.13
2023-04-06T19:06:17.799Z,39.81
2023-04-06T19:08:44.781Z,39.75
2023-04-06T19:11:12.122Z,40.08
2023-04-06T19:13:39.320Z,40.16
2023-04-06T19:16:09.923Z,40.41
2023-04-06T19:18:39.986Z,40.66
2023-04-06T19:21:14.710Z,40.54
2023-04-06T19:23:44.308Z,40.02
2023-04-06T19:26:15.106Z,39.63
2023-04-06T19:28:42.065Z,39.79
2023-04-06T19:31:10.520Z,40.37
2023-04-06T19:33:37.951Z,40.03
2023-04-06T19:36:10.585Z,40.37
2023-04-06T19:38:38.048Z,40.84
2023-04-06T19:41:06.687Z,40.22
2023-04-06T19:43:33.584Z,39.81
2023-04-06T19:46:00.563Z,40.08
2023-04-06T19:48:30.090Z,40.03
2023-04-06T19:50:57.293Z,39.73
2023-04-06T19:53:25.593Z,39.63
2023-04-06T19:55:52.651Z,39.82
2023-04-06T19:58:19.409Z,39.81
2023-04-06T20:00:52.813Z,39.98
2023-04-06T20:03:20.045Z,40.54
2023-04-06T20:05:48.195Z,40.24
2023-04-06T20:08:15.737Z,40.67
2023-04-06T20:10:42.496Z,40.38
2023-04-06T20:13:09.788Z,40.58
2023-04-06T20:15:37.057Z,41.65
2023-04-06T20:18:06.215Z,41.54
2023-04-06T20:20:33.219Z,41.44
2023-04-06T20:22:59.794Z,41.45
2023-04-06T20:25:26.982Z,41.37
2023-04-06T20:27:54.128Z,41.42
2023-04-06T20:30:21.338Z,41.56
2023-04-06T20:32:48.743Z,41.45
2023-04-06T20:35:17.317Z,42.06
2023-04-06T20:37:44.730Z,41.67
2023-04-06T20:40:12.785Z,41.08
2023-04-06T20:42:39.437Z,41.18
2023-04-06T20:45:06.776Z,41.17
2023-04-06T20:47:33.569Z,40.71
2023-04-06T20:50:00.060Z,41.02
2023-04-06T20:52:29.520Z,41.27
2023-04-06T20:54:56.383Z,41.02
2023-04-06T20:57:23.153Z,41.20
2023-04-06T20:59:50.161Z,41.09
2023-04-06T21:02:17.480Z,41.57
2023-04-06T21:04:44.377Z,42.44
2023-04-06T21:07:11.153Z,42.53
2023-04-06T21:09:39.036Z,42.50
2023-04-06T21:12:06.905Z,42.01
2023-04-06T21:14:34.838Z,41.31
2023-04-06T21:17:02.559Z,40.77
2023-04-06T21:19:29.873Z,40.42
2023-04-06T21:21:58.747Z,40.96
2023-04-06T21:24:26.052Z,40.77
2023-04-06T21:27:00.963Z,41.04
2023-04-06T21:29:28.074Z,40.87
2023-04-06T21:32:06.823Z,41.48
2023-04-06T21:34:33.901Z,42.38
2023-04-06T21:37:07.846Z,43.07
2023-04-06T21:39:36.966Z,42.85
2023-04-06T21:42:04.303Z,42.41
2023-04-06T21:44:32.032Z,41.01
2023-04-06T21:47:00.424Z,40.87
2023-04-06T21:49:28.076Z,40.93
2023-04-06T21:51:54.974Z,41.05
2023-04-06T21:54:21.672Z,41.19
2023-04-06T21:56:48.619Z,41.35
2023-04-06T21:59:15.987Z,41.46
2023-04-06T22:01:42.600Z,42.10
2023-04-06T22:04:11.300Z,42.01
2023-04-06T22:06:38.157Z,42.06
2023-04-06T22:09:05.890Z,42.54
2023-04-06T22:11:33.901Z,42.66
2023-04-06T22:14:00.700Z,42.41
2023-04-06T22:16:28.786Z,42.04
2023-04-06T22:18:55.914Z,41.83
2023-04-06T22:21:23.439Z,42.20
2023-04-06T22:23:50.420Z,41.94
2023-04-06T22:26:16.885Z,41.78
2023-04-06T22:28:43.225Z,41.55
2023-04-06T22:31:10.064Z,42.30
2023-04-06T22:33:37.098Z,42.92
2023-04-06T22:36:03.844Z,43.36
2023-04-06T22:38:30.477Z,42.71
2023-04-06T22:41:00.007Z,42.50
2023-04-06T22:43:26.444Z,42.54
2023-04-06T22:45:52.942Z,42.98
2023-04-06T22:48:19.600Z,42.67
2023-04-06T22:50:47.066Z,42.51
2023-04-06T22:53:13.832Z,42.13
2023-04-06T22:55:41.427Z,42.58
2023-04-06T22:58:08.131Z,42.60
2023-04-06T23:00:34.933Z,42.96
2023-04-06T23:03:01.764Z,42.79
2023-04-06T23:05:28.953Z,43.02
2023-04-06T23:07:56.214Z,43.38
2023-04-06T23:10:23.038Z,43.47
2023-04-06T23:12:49.904Z,43.29
2023-04-06T23:15:16.536Z,42.76
2023-04-06T23:17:43.608Z,42.62
2023-04-06T23:20:12.032Z,43.53
2023-04-06T23:22:39.077Z,45.13
2023-04-06T23:25:07.559Z,45.77
2023-04-06T23:27:34.629Z,46.03
2023-04-06T23:30:02.820Z,45.94
2023-04-06T23:32:32.010Z,46.22
2023-04-06T23:34:59.850Z,46.25
2023-04-06T23:37:29.913Z,46.46
2023-04-06T23:39:56.832Z,46.64
2023-04-06T23:42:28.529Z,46.18
2023-04-06T23:44:55.804Z,45.79
2023-04-06T23:47:22.708Z,46.15
2023-04-06T23:49:49.479Z,46.63
2023-04-06T23:52:16.791Z,46.97
2023-04-06T23:54:43.491Z,46.62
2023-04-06T23:57:10.090Z,45.99
2023-04-06T23:59:37.747Z,46.26
